Time;durP1;ratioP1;P1;durP2;ratioP2;P2;SDS_P1;SDS_P2;PMS_P1;PMS_P2;Temp;Humidity;BMP_temperature;BMP_pressure;BME280_temperature;BME280_humidity;BME280_pressure;Samples;Min_cycle;Max_cycle;Signal;HPM_P1;HPM_P2
2023/07/22 00:00:13;;;;;;;7.50;3.23;;;25.70;79.20;;;;;;5024101;28;20758;-69
2023/07/22 00:02:39;;;;;;;7.00;2.75;;;25.70;79.20;;;;;;5019545;28;20203;-69
2023/07/22 00:05:06;;;;;;;5.83;2.60;;;25.70;79.30;;;;;;5019947;28;20227;-69
2023/07/22 00:07:33;;;;;;;6.03;2.87;;;25.70;79.50;;;;;;5020603;28;20191;-69
2023/07/22 00:10:00;;;;;;;4.30;2.93;;;25.70;79.30;;;;;;5016015;28;20295;-69
2023/07/22 00:12:26;;;;;;;2.73;2.30;;;25.70;79.60;;;;;;5016014;28;20204;-69
2023/07/22 00:14:53;;;;;;;7.37;2.63;;;25.60;79.60;;;;;;5019802;28;20210;-69
2023/07/22 00:17:20;;;;;;;4.43;2.70;;;25.60;79.70;;;;;;5021799;28;20269;-69
2023/07/22 00:19:48;;;;;;;3.53;2.70;;;25.60;80.10;;;;;;5019094;28;20543;-70
2023/07/22 00:22:15;;;;;;;9.73;2.67;;;25.60;80.00;;;;;;5024638;28;20780;-70
2023/07/22 00:24:41;;;;;;;6.00;2.70;;;25.50;79.90;;;;;;5004681;28;20192;-70
2023/07/22 00:27:08;;;;;;;5.83;2.60;;;25.50;80.00;;;;;;5022685;28;20772;-70
2023/07/22 00:29:36;;;;;;;4.13;2.47;;;25.50;80.10;;;;;;5022980;28;20208;-70
2023/07/22 00:32:07;;;;;;;3.43;2.37;;;25.40;80.00;;;;;;5023888;28;20256;-70
2023/07/22 00:34:33;;;;;;;4.70;2.90;;;25.40;80.10;;;;;;5022349;28;20180;-70
2023/07/22 00:36:59;;;;;;;4.73;2.70;;;25.30;80.40;;;;;;5021136;28;20188;-70
2023/07/22 00:39:25;;;;;;;5.23;2.60;;;25.30;80.40;;;;;;5018310;28;20192;-70
2023/07/22 00:41:51;;;;;;;6.13;2.63;;;25.30;80.50;;;;;;5015855;28;20219;-70
2023/07/22 00:44:18;;;;;;;9.47;2.57;;;25.40;80.50;;;;;;5001715;28;20647;-70
2023/07/22 00:46:44;;;;;;;5.20;2.90;;;25.30;80.80;;;;;;5020877;28;20199;-70
2023/07/22 00:49:14;;;;;;;7.83;2.63;;;25.30;80.90;;;;;;5021463;28;20243;-70
2023/07/22 00:51:40;;;;;;;6.30;3.10;;;25.30;80.80;;;;;;5027339;28;20686;-70
2023/07/22 00:54:08;;;;;;;6.00;2.73;;;25.40;81.20;;;;;;5024695;28;20253;-70
2023/07/22 00:56:37;;;;;;;7.93;2.87;;;25.40;81.20;;;;;;5020445;28;20187;-70
2023/07/22 00:59:03;;;;;;;6.43;2.80;;;25.30;81.10;;;;;;5021621;28;20203;-70
2023/07/22 01:01:29;;;;;;;3.20;2.50;;;25.40;81.10;;;;;;5021497;28;20188;-70
2023/07/22 01:03:55;;;;;;;5.57;2.97;;;25.40;81.20;;;;;;5020940;28;20184;-70
2023/07/22 01:06:24;;;;;;;5.90;2.90;;;25.40;81.20;;;;;;5023964;28;20188;-70
2023/07/22 01:08:51;;;;;;;5.27;3.00;;;25.40;81.20;;;;;;5022422;28;20204;-70
2023/07/22 01:11:17;;;;;;;5.50;2.77;;;25.40;81.10;;;;;;5020811;28;20188;-70
2023/07/22 01:13:43;;;;;;;4.67;2.80;;;25.50;80.80;;;;;;5024498;28;20237;-70
2023/07/22 01:16:11;;;;;;;4.37;2.90;;;25.50;80.80;;;;;;5017484;28;20243;-70
2023/07/22 01:18:38;;;;;;;6.50;2.63;;;25.50;80.80;;;;;;5022517;28;20654;-70
2023/07/22 01:21:08;;;;;;;8.30;3.03;;;25.50;80.70;;;;;;5022993;28;20192;-70
2023/07/22 01:23:36;;;;;;;7.67;2.93;;;25.50;80.80;;;;;;5001115;28;20188;-70
2023/07/22 01:26:03;;;;;;;7.00;3.27;;;25.50;80.70;;;;;;5036611;28;20967;-70
2023/07/22 01:28:30;;;;;;;8.87;2.60;;;25.50;80.70;;;;;;5020013;28;20582;-70
2023/07/22 01:30:56;;;;;;;9.90;3.00;;;25.50;80.60;;;;;;5019386;28;20194;-70
2023/07/22 01:33:22;;;;;;;3.87;2.70;;;25.50;80.60;;;;;;5016655;28;20580;-68
2023/07/22 01:35:48;;;;;;;6.37;2.90;;;25.50;80.70;;;;;;5021559;28;20188;-70
2023/07/22 01:38:14;;;;;;;6.63;3.03;;;25.50;80.70;;;;;;5019139;28;20187;-70
2023/07/22 01:40:41;;;;;;;7.35;3.03;;;25.50;80.70;;;;;;5016081;28;20234;-70
2023/07/22 01:43:07;;;;;;;6.13;2.88;;;25.50;80.60;;;;;;5019037;28;20192;-69
2023/07/22 01:45:33;;;;;;;6.53;3.00;;;25.40;80.50;;;;;;5021689;28;20195;-69
2023/07/22 01:47:59;;;;;;;5.60;3.20;;;25.40;80.60;;;;;;5017181;28;20184;-69
2023/07/22 01:50:25;;;;;;;10.40;2.90;;;25.40;80.70;;;;;;5022233;28;20203;-69
2023/07/22 01:52:51;;;;;;;5.80;2.63;;;25.40;80.40;;;;;;5018491;28;20942;-70
2023/07/22 01:55:18;;;;;;;6.35;3.00;;;25.40;80.40;;;;;;5016165;28;20192;-70
2023/07/22 01:57:44;;;;;;;4.68;2.92;;;25.50;80.30;;;;;;5017917;28;20188;-70
2023/07/22 02:00:11;;;;;;;7.87;3.30;;;25.50;80.30;;;;;;5017724;28;20698;-70
2023/07/22 02:02:38;;;;;;;9.18;3.00;;;25.50;80.40;;;;;;5004447;28;20199;-70
2023/07/22 02:05:04;;;;;;;6.57;3.10;;;25.50;80.50;;;;;;5021722;28;20196;-70
2023/07/22 02:07:31;;;;;;;9.17;2.80;;;25.60;80.50;;;;;;5022984;28;20841;-70
2023/07/22 02:09:58;;;;;;;3.27;2.70;;;25.60;80.30;;;;;;5004379;28;20883;-70
2023/07/22 02:12:24;;;;;;;6.73;3.10;;;25.60;80.40;;;;;;5017087;28;20566;-70
2023/07/22 02:14:50;;;;;;;4.77;2.73;;;25.50;80.30;;;;;;5019561;28;20307;-70
2023/07/22 02:17:16;;;;;;;4.37;2.80;;;25.50;80.80;;;;;;5005254;28;20188;-70
2023/07/22 02:19:43;;;;;;;8.67;3.03;;;25.60;80.40;;;;;;5020912;28;20202;-70
2023/07/22 02:22:10;;;;;;;5.85;2.88;;;25.50;80.20;;;;;;5018658;28;20231;-70
2023/07/22 02:24:36;;;;;;;5.83;3.20;;;25.60;80.30;;;;;;5019056;28;20687;-70
2023/07/22 02:27:02;;;;;;;5.57;3.17;;;25.50;80.30;;;;;;5020460;28;20529;-70
2023/07/22 02:29:30;;;;;;;6.93;3.13;;;25.60;80.40;;;;;;5024978;28;20219;-70
2023/07/22 02:31:57;;;;;;;6.13;2.63;;;25.60;80.20;;;;;;5018145;28;21024;-70
2023/07/22 02:34:23;;;;;;;3.80;2.70;;;25.60;80.30;;;;;;5031102;28;20570;-70
2023/07/22 02:36:49;;;;;;;3.20;2.63;;;25.60;80.30;;;;;;5004392;28;20212;-70
2023/07/22 02:39:16;;;;;;;7.20;2.90;;;25.60;80.30;;;;;;5015917;28;20203;-70
2023/07/22 02:41:42;;;;;;;7.35;3.10;;;25.60;80.20;;;;;;5021304;28;20654;-70
2023/07/22 02:44:08;;;;;;;7.50;3.03;;;25.60;80.20;;;;;;5023393;28;20662;-70
2023/07/22 02:46:35;;;;;;;5.40;2.87;;;25.60;80.10;;;;;;5025419;28;20191;-69
2023/07/22 02:49:01;;;;;;;7.07;2.70;;;25.60;80.00;;;;;;5015299;28;20212;-70
2023/07/22 02:51:27;;;;;;;7.00;3.08;;;25.60;80.00;;;;;;5014880;28;20302;-70
2023/07/22 02:53:54;;;;;;;6.40;2.50;;;25.60;80.10;;;;;;5015076;28;20200;-70
2023/07/22 02:56:20;;;;;;;3.90;2.80;;;25.60;80.10;;;;;;5016754;28;20199;-69
2023/07/22 02:58:47;;;;;;;4.47;2.43;;;25.60;80.00;;;;;;5012147;28;20192;-69
2023/07/22 03:01:14;;;;;;;7.27;3.07;;;25.60;80.20;;;;;;5017303;28;20307;-69
2023/07/22 03:03:40;;;;;;;3.67;2.90;;;25.50;80.10;;;;;;5014404;28;20192;-69
2023/07/22 03:06:07;;;;;;;6.03;3.20;;;25.50;80.90;;;;;;5017035;28;20184;-69
2023/07/22 03:08:34;;;;;;;8.00;2.93;;;25.60;80.40;;;;;;5015131;28;20208;-69
2023/07/22 03:11:01;;;;;;;8.60;2.70;;;25.60;80.40;;;;;;5016714;28;20205;-69
2023/07/22 03:13:29;;;;;;;5.13;2.77;;;25.60;80.70;;;;;;5018236;28;20199;-69
2023/07/22 03:15:57;;;;;;;4.57;3.05;;;25.60;80.80;;;;;;5013946;28;20438;-69
2023/07/22 03:18:23;;;;;;;6.00;2.80;;;25.60;80.60;;;;;;5016391;28;20184;-69
2023/07/22 03:20:51;;;;;;;7.97;2.87;;;25.60;80.50;;;;;;4993653;28;20295;-69
2023/07/22 03:23:17;;;;;;;9.90;3.22;;;25.60;80.60;;;;;;5018190;28;20192;-70
2023/07/22 03:25:44;;;;;;;5.95;3.03;;;25.60;80.50;;;;;;5020999;28;20195;-69
2023/07/22 03:28:10;;;;;;;6.40;2.90;;;25.60;80.50;;;;;;5016764;28;20276;-70
2023/07/22 03:30:36;;;;;;;6.87;2.90;;;25.70;80.50;;;;;;5013337;28;20209;-70
2023/07/22 03:33:03;;;;;;;10.00;2.77;;;25.70;80.60;;;;;;5014804;28;20238;-70
2023/07/22 03:35:29;;;;;;;5.40;2.42;;;25.70;80.80;;;;;;5017547;28;20684;-70
2023/07/22 03:37:56;;;;;;;5.38;2.80;;;25.70;81.10;;;;;;5016849;28;20184;-70
2023/07/22 03:40:26;;;;;;;9.37;3.17;;;25.70;81.40;;;;;;5012807;28;21001;-70
2023/07/22 03:42:55;;;;;;;3.92;2.60;;;25.70;81.70;;;;;;5014951;28;20227;-70
2023/07/22 03:45:23;;;;;;;3.53;2.75;;;25.70;81.70;;;;;;5031159;28;20536;-70
2023/07/22 03:47:59;;;;;;;5.57;2.80;;;25.60;81.70;;;;;;5015607;28;20195;-70
2023/07/22 03:50:26;;;;;;;9.93;3.10;;;25.60;81.90;;;;;;5017416;28;20237;-70
2023/07/22 03:52:52;;;;;;;8.37;3.20;;;25.60;82.20;;;;;;5022596;28;20204;-70
2023/07/22 03:55:22;;;;;;;8.97;2.67;;;25.50;82.30;;;;;;5029114;28;20310;-70
2023/07/22 03:57:48;;;;;;;8.13;2.83;;;25.50;82.80;;;;;;5021102;28;20180;-70
2023/07/22 04:00:15;;;;;;;12.40;3.20;;;25.50;83.10;;;;;;5018746;28;20970;-70
2023/07/22 04:02:41;;;;;;;5.30;2.65;;;25.60;82.90;;;;;;5021671;28;20195;-70
2023/07/22 04:05:09;;;;;;;10.93;3.17;;;25.60;83.00;;;;;;5017854;28;20429;-70
2023/07/22 04:07:35;;;;;;;10.70;3.20;;;25.60;83.20;;;;;;5019054;28;20192;-70
2023/07/22 04:10:02;;;;;;;7.40;2.87;;;25.70;83.50;;;;;;5014844;28;20208;-70
2023/07/22 04:12:29;;;;;;;3.60;2.78;;;25.70;83.40;;;;;;5022059;28;20859;-70
2023/07/22 04:14:55;;;;;;;7.50;2.95;;;25.80;83.10;;;;;;5020506;28;20184;-70
2023/07/22 04:17:21;;;;;;;6.83;3.17;;;25.80;83.30;;;;;;5020660;28;20655;-70
2023/07/22 04:19:47;;;;;;;6.93;3.23;;;25.90;83.20;;;;;;5020193;28;20249;-70
2023/07/22 04:22:14;;;;;;;3.78;2.80;;;25.90;83.40;;;;;;5005411;28;20187;-70
2023/07/22 04:24:40;;;;;;;7.80;3.37;;;25.90;83.60;;;;;;5016912;28;20192;-69
2023/07/22 04:27:07;;;;;;;13.93;3.53;;;26.00;83.80;;;;;;5020881;28;20188;-69
2023/07/22 04:29:33;;;;;;;4.80;3.00;;;26.00;83.90;;;;;;5021552;28;20203;-69
2023/07/22 04:32:00;;;;;;;4.00;2.80;;;26.10;83.80;;;;;;5017578;28;20216;-69
2023/07/22 04:34:32;;;;;;;6.20;2.80;;;26.20;83.80;;;;;;5003021;28;20240;-69
2023/07/22 04:36:59;;;;;;;5.20;2.93;;;26.20;84.00;;;;;;5018949;28;20726;-69
2023/07/22 04:39:25;;;;;;;8.10;3.20;;;26.20;84.20;;;;;;5019303;28;20201;-69
2023/07/22 04:41:52;;;;;;;9.65;3.10;;;26.20;84.10;;;;;;5015309;28;20812;-69
2023/07/22 04:44:19;;;;;;;6.13;2.88;;;26.30;84.80;;;;;;5014463;28;20196;-69
2023/07/22 04:46:46;;;;;;;6.00;2.83;;;26.30;84.70;;;;;;5019644;28;20200;-69
2023/07/22 04:49:13;;;;;;;8.18;3.50;;;26.30;84.80;;;;;;5017604;28;20204;-69
2023/07/22 04:51:39;;;;;;;4.57;2.95;;;26.40;85.00;;;;;;5016154;28;20219;-69
2023/07/22 04:54:06;;;;;;;11.73;3.83;;;26.40;85.30;;;;;;5020032;28;20279;-69
2023/07/22 04:56:32;;;;;;;8.50;2.40;;;26.40;85.80;;;;;;5018344;28;20192;-69
2023/07/22 04:58:58;;;;;;;8.25;3.53;;;26.50;85.50;;;;;;5018791;28;20637;-69
2023/07/22 05:01:24;;;;;;;5.13;3.50;;;26.50;86.10;;;;;;5019922;28;20287;-69
2023/07/22 05:03:50;;;;;;;8.65;3.25;;;26.60;86.40;;;;;;5019368;28;20222;-69
2023/07/22 05:06:16;;;;;;;5.53;2.72;;;26.70;87.40;;;;;;5018694;28;20977;-69
2023/07/22 05:08:43;;;;;;;12.90;3.25;;;26.70;88.30;;;;;;5001343;28;20200;-69
2023/07/22 05:11:09;;;;;;;6.50;2.90;;;26.70;88.40;;;;;;5014589;28;20647;-70
2023/07/22 05:13:35;;;;;;;10.60;2.90;;;26.70;88.10;;;;;;5021635;28;20176;-70
2023/07/22 05:16:01;;;;;;;6.20;2.78;;;26.80;89.40;;;;;;5007172;28;20187;-70
2023/07/22 05:18:27;;;;;;;6.95;3.05;;;26.80;89.10;;;;;;5022155;28;20586;-70
2023/07/22 05:20:54;;;;;;;11.20;2.65;;;26.80;90.10;;;;;;5020247;28;20185;-70
2023/07/22 05:23:20;;;;;;;4.15;2.92;;;26.90;90.20;;;;;;5023130;28;20280;-70
2023/07/22 05:25:54;;;;;;;10.05;3.20;;;26.90;90.70;;;;;;5024854;28;20195;-70
2023/07/22 05:28:20;;;;;;;5.07;2.97;;;27.00;90.90;;;;;;5019226;28;20193;-70
2023/07/22 05:30:46;;;;;;;5.03;2.78;;;27.10;90.90;;;;;;5022166;28;20189;-70
2023/07/22 05:33:12;;;;;;;7.18;3.47;;;27.10;91.20;;;;;;5015837;28;20196;-70
2023/07/22 05:35:39;;;;;;;6.97;3.13;;;27.20;91.60;;;;;;5022958;28;20189;-70
2023/07/22 05:38:05;;;;;;;10.00;2.67;;;27.30;91.40;;;;;;5024831;28;20191;-70
2023/07/22 05:40:32;;;;;;;6.47;3.35;;;27.30;91.40;;;;;;5023547;28;20208;-70
2023/07/22 05:42:58;;;;;;;7.03;3.17;;;27.30;91.80;;;;;;5019062;28;20897;-70
2023/07/22 05:45:25;;;;;;;7.57;3.08;;;27.40;91.70;;;;;;5017189;28;20639;-68
2023/07/22 05:47:51;;;;;;;6.03;2.80;;;27.40;91.50;;;;;;5017932;28;20184;-68
2023/07/22 05:50:17;;;;;;;6.43;2.97;;;27.50;91.50;;;;;;5014495;28;20691;-68
2023/07/22 05:52:45;;;;;;;4.32;3.05;;;27.50;91.40;;;;;;5021031;28;20718;-68
2023/07/22 05:55:11;;;;;;;10.63;3.03;;;27.60;92.00;;;;;;5000761;28;21031;-68
2023/07/22 05:57:37;;;;;;;7.22;3.00;;;27.60;91.50;;;;;;5021047;28;20262;-68
2023/07/22 06:00:04;;;;;;;8.15;3.17;;;27.70;91.20;;;;;;5021421;28;20799;-68
2023/07/22 06:02:30;;;;;;;6.63;3.03;;;27.80;91.40;;;;;;5022177;28;20215;-68
2023/07/22 06:04:56;;;;;;;4.80;3.13;;;27.80;91.10;;;;;;5017199;28;20187;-68
2023/07/22 06:07:23;;;;;;;10.05;3.05;;;27.90;90.00;;;;;;5016508;28;20188;-68
2023/07/22 06:09:49;;;;;;;9.27;3.00;;;28.10;90.00;;;;;;5019132;28;20254;-68
2023/07/22 06:12:15;;;;;;;5.30;3.20;;;28.10;90.30;;;;;;5020161;28;20188;-68
2023/07/22 06:14:41;;;;;;;6.57;2.95;;;28.30;90.30;;;;;;5014948;28;20192;-68
2023/07/22 06:17:08;;;;;;;5.53;2.72;;;28.30;90.50;;;;;;5019200;28;20670;-68
2023/07/22 06:19:34;;;;;;;4.80;2.95;;;28.40;90.20;;;;;;5015045;28;20459;-68
2023/07/22 06:22:00;;;;;;;8.23;3.00;;;28.40;90.20;;;;;;5017590;28;20191;-69
2023/07/22 06:24:26;;;;;;;9.77;3.10;;;28.50;90.60;;;;;;5020600;28;20203;-68
2023/07/22 06:26:52;;;;;;;4.63;3.00;;;28.70;90.70;;;;;;5020559;28;20184;-69
2023/07/22 06:29:19;;;;;;;10.02;3.63;;;28.80;90.50;;;;;;5022567;28;20234;-69
2023/07/22 06:31:45;;;;;;;11.27;3.20;;;28.90;90.00;;;;;;5019447;28;20279;-69
2023/07/22 06:34:11;;;;;;;10.80;3.05;;;28.90;90.00;;;;;;5018704;28;20544;-68
2023/07/22 06:36:37;;;;;;;11.77;3.17;;;29.00;88.50;;;;;;5018150;28;20299;-68
2023/07/22 06:39:04;;;;;;;10.73;3.22;;;29.00;89.00;;;;;;5016752;28;20200;-68
2023/07/22 06:41:30;;;;;;;8.80;3.50;;;29.10;87.70;;;;;;5013801;28;20239;-68
2023/07/22 06:43:56;;;;;;;8.07;3.00;;;29.30;88.50;;;;;;5016277;28;20816;-68
2023/07/22 06:46:22;;;;;;;7.82;2.92;;;29.40;88.10;;;;;;5015347;28;20549;-68
2023/07/22 06:48:49;;;;;;;8.52;3.65;;;29.40;88.10;;;;;;5018268;28;20742;-68
2023/07/22 06:51:15;;;;;;;5.47;3.00;;;29.50;88.20;;;;;;5018000;28;20580;-68
2023/07/22 06:53:41;;;;;;;14.43;3.10;;;29.50;88.00;;;;;;5021142;28;20666;-68
2023/07/22 06:56:07;;;;;;;7.43;3.35;;;29.60;87.70;;;;;;5010229;28;20489;-68
2023/07/22 06:58:33;;;;;;;6.95;2.72;;;29.70;87.50;;;;;;5016519;28;20277;-68
2023/07/22 07:01:00;;;;;;;8.48;3.33;;;29.80;87.60;;;;;;5013377;28;20558;-68
2023/07/22 07:03:26;;;;;;;6.90;3.17;;;29.90;88.20;;;;;;5015592;28;20216;-68
2023/07/22 07:05:57;;;;;;;4.72;2.72;;;30.00;88.30;;;;;;5015550;28;20355;-68
2023/07/22 07:08:24;;;;;;;11.63;3.10;;;30.10;90.00;;;;;;5015208;28;20188;-68
2023/07/22 07:10:51;;;;;;;6.15;3.17;;;30.20;92.20;;;;;;5011465;28;20188;-69
2023/07/22 07:13:17;;;;;;;12.02;3.50;;;30.30;92.90;;;;;;5014184;28;20211;-69
2023/07/22 07:15:50;;;;;;;13.05;3.92;;;30.40;93.70;;;;;;5017060;28;20200;-68
2023/07/22 07:18:17;;;;;;;5.57;3.03;;;30.60;92.30;;;;;;5019486;28;20188;-68
2023/07/22 07:20:44;;;;;;;8.15;3.35;;;30.60;91.90;;;;;;5000752;28;20227;-69
2023/07/22 07:23:11;;;;;;;4.97;3.20;;;30.70;91.60;;;;;;5018591;28;20188;-69
2023/07/22 07:25:37;;;;;;;14.07;3.33;;;30.70;91.30;;;;;;5017837;28;20199;-69
2023/07/22 07:28:04;;;;;;;6.10;3.35;;;30.90;92.30;;;;;;5016183;28;20203;-69
2023/07/22 07:30:32;;;;;;;6.57;3.22;;;31.00;91.50;;;;;;5019077;28;20958;-68
2023/07/22 07:32:58;;;;;;;6.10;3.30;;;31.00;90.60;;;;;;5019839;28;20271;-68
2023/07/22 07:35:24;;;;;;;11.27;3.63;;;31.20;91.00;;;;;;5028147;28;20739;-69
2023/07/22 07:37:50;;;;;;;6.80;3.70;;;31.20;91.80;;;;;;5014929;28;20188;-68
2023/07/22 07:40:16;;;;;;;7.72;3.60;;;31.30;92.10;;;;;;5011860;28;20212;-68
2023/07/22 07:42:43;;;;;;;8.70;3.35;;;31.40;91.40;;;;;;5015023;28;20630;-68
2023/07/22 07:45:09;;;;;;;7.57;3.33;;;31.50;92.30;;;;;;5014559;28;20262;-68
2023/07/22 07:47:36;;;;;;;11.23;3.85;;;31.60;92.20;;;;;;5013883;28;20694;-68
2023/07/22 07:50:03;;;;;;;6.88;3.28;;;31.70;91.80;;;;;;5018723;28;20619;-68
2023/07/22 07:52:29;;;;;;;8.10;3.38;;;31.80;91.60;;;;;;5020140;28;20188;-68
2023/07/22 07:54:55;;;;;;;7.32;3.53;;;31.90;92.70;;;;;;5018766;28;20230;-68
2023/07/22 07:57:21;;;;;;;11.43;3.20;;;32.00;91.80;;;;;;5018800;28;20195;-68
2023/07/22 07:59:47;;;;;;;8.68;3.53;;;32.00;92.60;;;;;;5012684;28;20197;-68
2023/07/22 08:02:14;;;;;;;8.90;3.13;;;32.10;93.70;;;;;;5013747;28;20965;-68
2023/07/22 08:04:41;;;;;;;3.63;2.60;;;32.20;93.60;;;;;;4999216;28;20534;-68
2023/07/22 08:07:07;;;;;;;7.45;3.22;;;32.20;93.60;;;;;;5010901;28;20547;-68
2023/07/22 08:09:33;;;;;;;12.90;3.60;;;32.30;93.50;;;;;;5018079;28;20223;-68
2023/07/22 08:12:01;;;;;;;5.38;3.40;;;32.30;93.60;;;;;;5016071;28;20212;-68
2023/07/22 08:14:27;;;;;;;9.60;3.55;;;32.40;93.70;;;;;;5015199;28;20601;-68
2023/07/22 08:16:54;;;;;;;4.38;3.40;;;32.50;94.00;;;;;;5017736;28;20193;-68
2023/07/22 08:19:20;;;;;;;4.85;3.22;;;32.60;93.60;;;;;;5010276;28;20242;-68
2023/07/22 08:21:47;;;;;;;12.65;3.72;;;32.60;93.70;;;;;;5014035;28;20249;-68
2023/07/22 08:24:14;;;;;;;4.35;3.00;;;32.70;93.20;;;;;;5016773;28;20503;-68
2023/07/22 08:26:40;;;;;;;8.15;3.58;;;32.80;93.10;;;;;;5007153;28;20201;-68
2023/07/22 08:29:06;;;;;;;6.20;3.33;;;32.90;93.10;;;;;;5011094;28;20227;-68
2023/07/22 08:31:32;;;;;;;6.90;3.20;;;32.90;92.90;;;;;;5009372;28;20259;-68
2023/07/22 08:33:59;;;;;;;4.28;3.25;;;33.00;93.70;;;;;;5034913;28;20279;-68
2023/07/22 08:36:25;;;;;;;4.75;3.10;;;33.00;93.60;;;;;;5020856;28;20196;-69
2023/07/22 08:38:51;;;;;;;6.47;3.80;;;33.10;94.30;;;;;;5016533;28;20211;-69
2023/07/22 08:41:17;;;;;;;9.40;3.65;;;33.10;93.60;;;;;;5017528;28;20197;-69
2023/07/22 08:43:47;;;;;;;8.40;3.53;;;33.20;94.00;;;;;;5022502;28;20192;-69
2023/07/22 08:46:16;;;;;;;8.48;3.35;;;33.30;93.30;;;;;;5021143;28;20255;-69
2023/07/22 08:49:07;;;;;;;15.25;3.45;;;33.50;94.00;;;;;;5022396;28;20293;-69
2023/07/22 08:51:35;;;;;;;12.93;3.58;;;33.50;93.50;;;;;;5019611;28;20211;-69
2023/07/22 08:54:02;;;;;;;6.68;3.30;;;33.70;93.60;;;;;;5023303;28;21316;-69
2023/07/22 08:56:29;;;;;;;9.95;3.65;;;33.70;94.30;;;;;;5017261;28;20185;-69
2023/07/22 08:58:57;;;;;;;11.13;3.90;;;33.80;95.00;;;;;;5018116;28;20189;-69
2023/07/22 09:01:24;;;;;;;10.02;3.95;;;33.90;95.30;;;;;;5014351;28;20189;-69
2023/07/22 09:03:53;;;;;;;7.43;3.45;;;33.90;94.10;;;;;;5017538;28;20638;-69
2023/07/22 09:06:20;;;;;;;8.20;3.47;;;33.90;94.90;;;;;;5003981;28;20552;-69
2023/07/22 09:08:47;;;;;;;10.68;3.53;;;34.10;95.10;;;;;;5015777;28;20188;-69
2023/07/22 09:11:15;;;;;;;8.00;3.47;;;34.10;95.10;;;;;;5018360;28;20586;-69
2023/07/22 09:13:44;;;;;;;8.20;3.78;;;34.10;94.80;;;;;;5014267;28;20193;-69
2023/07/22 09:16:12;;;;;;;12.80;3.90;;;34.10;95.00;;;;;;4997533;28;20216;-69
2023/07/22 09:18:39;;;;;;;6.25;3.25;;;34.10;93.90;;;;;;5015150;28;20188;-69
2023/07/22 09:21:05;;;;;;;12.27;3.65;;;34.20;95.40;;;;;;5014857;28;20188;-69
2023/07/22 09:23:37;;;;;;;10.68;3.88;;;34.30;94.10;;;;;;5018416;28;21269;-69
2023/07/22 09:26:12;;;;;;;9.90;3.58;;;34.40;93.40;;;;;;5017154;28;20183;-69
2023/07/22 09:28:52;;;;;;;11.80;3.70;;;34.60;94.20;;;;;;5014440;28;20662;-69
2023/07/22 09:31:22;;;;;;;6.97;3.50;;;34.80;93.70;;;;;;5017680;28;20690;-69
2023/07/22 09:33:49;;;;;;;7.90;3.50;;;34.80;92.90;;;;;;5019997;28;20195;-69
2023/07/22 09:36:16;;;;;;;10.13;3.45;;;34.90;93.40;;;;;;5016604;28;20188;-69
2023/07/22 09:38:42;;;;;;;7.38;2.88;;;34.80;93.10;;;;;;5022096;28;20622;-68
2023/07/22 09:41:13;;;;;;;8.00;3.78;;;35.00;92.60;;;;;;5020746;28;21105;-68
2023/07/22 09:43:39;;;;;;;4.72;3.05;;;34.90;93.20;;;;;;5017145;28;20276;-68
2023/07/22 09:46:10;;;;;;;14.65;3.42;;;35.10;93.40;;;;;;5017106;28;20219;-68
2023/07/22 09:48:42;;;;;;;6.63;3.67;;;35.30;93.80;;;;;;5018968;28;20246;-68
2023/07/22 09:51:16;;;;;;;9.95;3.47;;;35.50;93.70;;;;;;5001929;28;20275;-69
2023/07/22 09:53:59;;;;;;;7.47;3.08;;;35.50;94.00;;;;;;5020457;28;20514;-69
2023/07/22 09:56:25;;;;;;;8.05;3.53;;;35.50;93.70;;;;;;5018857;28;20192;-69
2023/07/22 09:58:52;;;;;;;8.00;3.53;;;35.50;92.80;;;;;;5019914;28;20224;-69
2023/07/22 10:01:26;;;;;;;17.08;3.67;;;35.50;93.60;;;;;;5017893;28;20219;-70
2023/07/22 10:03:56;;;;;;;7.97;3.58;;;35.60;92.80;;;;;;5017838;28;20603;-69
2023/07/22 10:06:29;;;;;;;9.25;3.28;;;35.60;93.20;;;;;;5019136;28;20287;-69
2023/07/22 10:09:08;;;;;;;6.32;3.28;;;35.70;93.40;;;;;;5020763;28;20552;-69
2023/07/22 10:11:36;;;;;;;7.43;3.17;;;35.70;92.00;;;;;;5016386;28;20550;-69
2023/07/22 10:14:04;;;;;;;8.35;3.40;;;35.80;92.80;;;;;;5013978;28;20188;-69
2023/07/22 10:16:31;;;;;;;11.50;3.28;;;35.90;92.70;;;;;;5014529;28;20191;-69
2023/07/22 10:18:58;;;;;;;8.10;3.58;;;35.90;91.90;;;;;;5016950;28;20228;-68
2023/07/22 10:21:26;;;;;;;7.40;3.42;;;35.90;91.00;;;;;;5013021;28;20227;-68
2023/07/22 10:23:54;;;;;;;8.20;3.60;;;35.90;90.80;;;;;;5014626;28;20184;-68
2023/07/22 10:26:20;;;;;;;15.68;3.70;;;36.00;92.30;;;;;;5012921;28;20634;-68
2023/07/22 10:28:48;;;;;;;4.45;3.13;;;35.90;93.70;;;;;;5014051;28;20257;-68
2023/07/22 10:31:18;;;;;;;6.07;3.40;;;35.70;93.90;;;;;;5017671;28;20220;-68
2023/07/22 10:33:48;;;;;;;8.98;3.25;;;35.70;94.60;;;;;;5010077;28;20180;-68
2023/07/22 10:36:17;;;;;;;12.45;3.50;;;35.70;94.70;;;;;;5011553;28;20195;-68
2023/07/22 10:38:43;;;;;;;9.77;3.40;;;35.60;94.40;;;;;;5010258;28;20189;-68
2023/07/22 10:41:17;;;;;;;6.45;3.15;;;35.40;94.10;;;;;;5011435;28;20211;-68
2023/07/22 10:43:56;;;;;;;10.63;3.42;;;35.30;95.30;;;;;;5014813;28;20184;-68
2023/07/22 10:46:34;;;;;;;11.45;3.78;;;35.20;94.90;;;;;;5011492;28;20187;-68
2023/07/22 10:49:16;;;;;;;8.57;3.50;;;35.00;94.80;;;;;;5017614;28;20594;-68
2023/07/22 10:51:52;;;;;;;7.60;3.58;;;35.10;94.00;;;;;;5009672;28;20849;-68
2023/07/22 10:54:36;;;;;;;7.22;3.70;;;35.10;93.40;;;;;;5011041;28;20192;-68
2023/07/22 10:57:24;;;;;;;5.15;3.30;;;35.20;91.80;;;;;;5011264;28;20250;-68
2023/07/22 10:59:51;;;;;;;8.73;3.67;;;35.20;92.60;;;;;;5007148;28;20189;-68
2023/07/22 11:02:29;;;;;;;5.43;3.47;;;35.30;91.20;;;;;;5011069;28;20746;-68
2023/07/22 11:05:00;;;;;;;10.48;3.50;;;35.40;93.50;;;;;;5020295;28;20183;-68
2023/07/22 11:07:43;;;;;;;6.95;3.58;;;35.40;92.40;;;;;;5009707;28;20201;-68
2023/07/22 11:10:19;;;;;;;5.72;3.30;;;35.40;91.80;;;;;;5008140;28;20208;-68
2023/07/22 11:12:48;;;;;;;8.05;3.13;;;35.40;92.20;;;;;;5007405;28;20196;-68
2023/07/22 11:15:17;;;;;;;7.55;3.33;;;35.30;92.20;;;;;;5013315;28;20196;-68
2023/07/22 11:17:44;;;;;;;7.78;3.67;;;35.20;91.60;;;;;;5011572;28;20181;-68
2023/07/22 11:20:10;;;;;;;6.28;3.58;;;35.20;93.10;;;;;;5014743;28;20230;-68
2023/07/22 11:22:40;;;;;;;8.27;3.63;;;35.20;91.00;;;;;;5016399;28;20203;-68
2023/07/22 11:25:07;;;;;;;10.23;3.42;;;35.20;90.90;;;;;;5012236;28;20246;-68
2023/07/22 11:27:34;;;;;;;8.95;3.28;;;35.10;90.60;;;;;;5013067;28;20574;-68
2023/07/22 11:30:05;;;;;;;7.60;3.05;;;35.20;90.60;;;;;;5014476;28;20204;-68
2023/07/22 11:32:32;;;;;;;10.20;3.30;;;35.20;90.10;;;;;;5010667;28;20278;-68
2023/07/22 11:35:00;;;;;;;8.57;3.80;;;35.20;90.20;;;;;;5009782;28;20279;-68
2023/07/22 11:37:28;;;;;;;10.65;3.58;;;35.10;90.20;;;;;;5013057;28;20192;-68
2023/07/22 11:40:01;;;;;;;8.80;3.53;;;35.20;90.50;;;;;;5029827;28;20551;-68
2023/07/22 11:42:29;;;;;;;6.97;3.45;;;35.20;91.40;;;;;;5003468;28;20216;-68
2023/07/22 11:44:55;;;;;;;9.52;3.70;;;35.20;91.70;;;;;;5013384;28;20212;-68
2023/07/22 11:47:31;;;;;;;10.32;3.60;;;35.20;92.50;;;;;;5016276;28;20188;-68
2023/07/22 11:49:58;;;;;;;6.57;3.90;;;35.20;93.00;;;;;;5016541;28;22011;-68
2023/07/22 11:52:24;;;;;;;12.82;3.88;;;35.20;92.60;;;;;;5015262;28;20247;-68
2023/07/22 11:54:51;;;;;;;14.90;4.15;;;35.40;92.80;;;;;;5014877;28;20272;-68
2023/07/22 11:57:21;;;;;;;10.27;3.40;;;35.30;92.10;;;;;;5019049;28;20283;-68
2023/07/22 11:59:54;;;;;;;7.47;3.90;;;35.30;92.40;;;;;;5015446;28;20196;-68
2023/07/22 12:02:29;;;;;;;6.40;3.50;;;35.30;92.40;;;;;;5015277;28;20578;-68
2023/07/22 12:05:02;;;;;;;11.50;3.53;;;35.30;92.20;;;;;;5012684;28;20291;-68
2023/07/22 12:07:34;;;;;;;8.55;3.90;;;35.30;92.70;;;;;;5016148;28;20197;-68
2023/07/22 12:10:06;;;;;;;8.93;3.83;;;35.30;93.10;;;;;;5015070;28;20216;-70
2023/07/22 12:12:48;;;;;;;6.35;3.65;;;35.20;92.80;;;;;;5018074;28;20622;-69
2023/07/22 12:15:21;;;;;;;7.43;3.65;;;35.20;92.40;;;;;;5019311;28;20191;-69
2023/07/22 12:17:53;;;;;;;10.90;3.83;;;35.20;92.40;;;;;;5019866;28;20262;-69
2023/07/22 12:20:26;;;;;;;7.05;3.42;;;35.20;92.50;;;;;;5019341;28;20199;-69
2023/07/22 12:22:53;;;;;;;7.00;3.70;;;35.30;91.60;;;;;;5014028;28;20195;-69
2023/07/22 12:25:20;;;;;;;9.00;3.65;;;35.20;91.70;;;;;;4996492;28;20257;-69
2023/07/22 12:27:46;;;;;;;8.57;4.05;;;35.30;92.40;;;;;;5014106;28;20204;-69
2023/07/22 12:30:13;;;;;;;10.55;3.50;;;35.40;92.50;;;;;;5017472;28;20748;-69
2023/07/22 12:32:39;;;;;;;11.50;3.67;;;35.40;92.50;;;;;;5019503;28;20188;-69
2023/07/22 12:35:06;;;;;;;6.20;3.30;;;35.30;91.70;;;;;;5018623;28;20193;-69
2023/07/22 12:37:32;;;;;;;8.27;3.63;;;35.20;92.60;;;;;;5016956;28;20258;-69
2023/07/22 12:39:58;;;;;;;9.00;3.80;;;35.20;92.40;;;;;;5016393;28;20270;-69
2023/07/22 12:42:25;;;;;;;7.25;3.10;;;35.20;92.40;;;;;;5021495;28;20227;-69
2023/07/22 12:44:52;;;;;;;9.27;3.72;;;35.20;92.40;;;;;;5014473;28;20189;-69
2023/07/22 12:47:18;;;;;;;10.13;3.55;;;35.20;93.10;;;;;;5012697;28;20195;-69